Lima, OH

4:43 PM EST on December 22, 2014 (GMT -0500)
Findlay | Change Station
CLOSE
Current Station
Airport
Location: Findlay,
Elevation: 810 ft
Nearby Weather Stations

Elev 810 ft 41.01 °N, 83.67 °W | Updated 50 minutes ago

Overcast
Overcast
41 °F
Feels Like 35 °F
N
9
Wind Variable Wind from East

Today
High -- | Low -- °F
--% Chance of Precip.
Yesterday
High -- | Low -- °F
Precip. -- in
7:57 AM 5:12 PM
New Moon, 1% visible
Pressure 29.89 in
Visibility 8.0 miles
Clouds Few 8500 ft
Mostly Cloudy 11000 ft
Windchill 35 °F
Dew Point 33 °F
Humidity 73%
Rainfall 0.00 in
Snow Depth Not available.
UV 0 out of 12
Pollen .10 out of 12
Air Quality Not available.
Flu Activity Not available.
METAR KFDY 222053Z AUTO 10008KT 8SM FEW085 BKN110 05/01 A2988 RMK AO2 SLP122 T00500006 56021

More Conditions Fewer Conditions

Pressure 29.89 in
Visibility 8.0 miles
Clouds Few 8500 ft
Mostly Cloudy 11000 ft
Windchill 35 °F
Dew Point 33 °F
Humidity 73%
Rainfall 0.00 in
Snow Depth Not available.
UV 0 out of 12
Pollen .10 out of 12
Air Quality Not available.
Flu Activity Not available.
METAR KFDY 222053Z AUTO 10008KT 8SM FEW085 BKN110 05/01 A2988 RMK AO2 SLP122 T00500006 56021

More Conditions Fewer Conditions

10-Day Weather Forecast

Almanac

Astronomy

Dec. 22, 2014 Rise Set
Actual Time
Civil Twilight
Nautical Twilight
Astronomical Twilight
Moon
Length of Visible Light
Length of Day
Tomorrow will be .
, % of the Moon is Illuminated

Today's Extremes

State Highs State Lows

Community

WunderPhotos

Upload Photos

1,779,688 photos uploaded!

WunderBlogs® & News

Nearby

Air Quality

  Air Quality AQ Index Pollutant
Not available.

Snow Depth

Station Depth Elevation

Earthquake Activity

City Distance Mag. Time & Date
Minimum magnitude displayed is 2.5.

Coastal Water Temperatures

Place Temperature

Nearby Weather Stations